Terminal Aerodrome Forecast
Issued by NWS Central Illinois

Home | Current Version | Previous Version | Text Only | Print | Product List | Glossary On
Versions: 1 2 3 4 5 6 7 8 9 10 11 12 13 14 15 16 17 18
000
FTUS43 KILX 200500
TAFSPI
TAF
KSPI 200533Z 2006/2106 15003KT P6SM OVC060
     FM201200 16003KT 5SM BR BKN025
     FM201600 17006KT P6SM SCT025 OVC040=

USA.gov is the U.S. government's official web portal to all federal, state and local government web resources and services.